createdAt,value
2018-08-14T00:01:06.955Z,100269.38
2018-08-14T00:03:35.547Z,100274.37
2018-08-14T00:06:04.065Z,100275.00
2018-08-14T00:08:32.569Z,100268.07
2018-08-14T00:11:01.219Z,100272.38
2018-08-14T00:13:29.719Z,100268.23
2018-08-14T00:15:58.227Z,100273.37
2018-08-14T00:18:26.702Z,100275.73
2018-08-14T00:20:55.728Z,100274.29
2018-08-14T00:23:24.295Z,100270.05
2018-08-14T00:25:52.934Z,100270.56
2018-08-14T00:28:22.055Z,100276.92
2018-08-14T00:30:51.559Z,100278.66
2018-08-14T00:33:20.067Z,100280.20
2018-08-14T00:35:48.777Z,100274.08
2018-08-14T00:38:17.353Z,100274.63
2018-08-14T00:40:46.659Z,100280.36
2018-08-14T00:43:15.936Z,100276.75
2018-08-14T00:45:46.650Z,100280.77
2018-08-14T00:48:15.181Z,100283.73
2018-08-14T00:50:43.683Z,100282.27
2018-08-14T00:53:12.235Z,100266.93
2018-08-14T00:55:41.320Z,100277.33
2018-08-14T00:58:09.889Z,100266.08
2018-08-14T01:00:38.458Z,100266.08
2018-08-14T01:03:09.228Z,100261.41
2018-08-14T01:05:37.767Z,100265.59
2018-08-14T01:08:06.475Z,100258.95
2018-08-14T01:10:35.000Z,100259.05
2018-08-14T01:13:03.500Z,100248.14
2018-08-14T01:15:32.016Z,100256.80
2018-08-14T01:18:00.687Z,100257.89
2018-08-14T01:20:31.220Z,100266.33
2018-08-14T01:23:00.317Z,100262.38
2018-08-14T01:25:29.004Z,100262.78
2018-08-14T01:27:57.529Z,100255.41
2018-08-14T01:30:27.335Z,100255.31
2018-08-14T01:32:55.948Z,100257.92
2018-08-14T01:35:24.517Z,100248.03
2018-08-14T01:37:53.632Z,100256.38
2018-08-14T01:40:23.703Z,100255.62
2018-08-14T01:42:52.313Z,100254.52
2018-08-14T01:45:20.939Z,100253.62
2018-08-14T01:47:49.924Z,100258.16
2018-08-14T01:50:21.946Z,100259.47
2018-08-14T01:52:50.528Z,100260.77
2018-08-14T01:55:20.717Z,100260.83
2018-08-14T01:57:50.001Z,100269.32
2018-08-14T02:00:20.019Z,100264.80
2018-08-14T02:02:49.577Z,100260.08
2018-08-14T02:05:18.230Z,100263.20
2018-08-14T02:07:46.948Z,100263.44
2018-08-14T02:10:16.983Z,100262.20
2018-08-14T02:12:45.486Z,100258.68
2018-08-14T02:15:16.057Z,100257.98
2018-08-14T02:17:45.077Z,100264.95
2018-08-14T02:20:18.038Z,100267.71
2018-08-14T02:22:48.063Z,100261.34
2018-08-14T02:25:16.649Z,100266.62
2018-08-14T02:27:45.599Z,100264.86
2018-08-14T02:30:15.196Z,100260.04
2018-08-14T02:32:43.915Z,100260.73
2018-08-14T02:35:13.041Z,100258.43
2018-08-14T02:37:41.929Z,100263.70
2018-08-14T02:40:12.708Z,100258.94
2018-08-14T02:43:12.220Z,100257.58
2018-08-14T02:45:40.832Z,100255.43
2018-08-14T02:48:09.791Z,100254.58
2018-08-14T02:50:38.381Z,100259.94
2018-08-14T02:53:08.752Z,100263.06
2018-08-14T02:55:37.345Z,100261.49
2018-08-14T02:58:05.898Z,100269.77
2018-08-14T03:00:34.476Z,100272.27
2018-08-14T03:03:03.171Z,100273.98
2018-08-14T03:05:31.673Z,100277.03
2018-08-14T03:08:00.176Z,100278.70
2018-08-14T03:10:28.737Z,100277.44
2018-08-14T03:12:57.346Z,100278.89
2018-08-14T03:15:25.861Z,100277.59
2018-08-14T03:17:56.205Z,100271.92
2018-08-14T03:20:24.775Z,100272.42
2018-08-14T03:22:53.595Z,100271.27
2018-08-14T03:25:22.116Z,100275.48
2018-08-14T03:27:51.015Z,100273.88
2018-08-14T03:30:19.661Z,100276.49
2018-08-14T03:32:49.311Z,100282.55
2018-08-14T03:35:17.830Z,100276.83
2018-08-14T03:37:46.345Z,100277.28
2018-08-14T03:40:17.121Z,100279.89
2018-08-14T03:42:47.548Z,100281.00
2018-08-14T03:45:16.132Z,100283.55
2018-08-14T03:47:46.489Z,100277.55
2018-08-14T03:50:15.593Z,100280.13
2018-08-14T03:52:46.285Z,100276.24
2018-08-14T03:55:18.306Z,100278.28
2018-08-14T03:57:47.776Z,100279.30
2018-08-14T04:00:17.836Z,100284.80
2018-08-14T04:02:46.818Z,100277.44
2018-08-14T04:05:16.574Z,100276.98
2018-08-14T04:07:45.488Z,100280.55
2018-08-14T04:10:15.267Z,100282.28
2018-08-14T04:12:43.987Z,100289.64
2018-08-14T04:15:15.106Z,100282.39
2018-08-14T04:17:43.672Z,100284.45
2018-08-14T04:20:13.187Z,100290.41
2018-08-14T04:22:42.391Z,100288.51
2018-08-14T04:25:11.694Z,100299.78
2018-08-14T04:27:40.854Z,100293.58
2018-08-14T04:30:12.974Z,100298.33
2018-08-14T04:32:44.269Z,100297.03
2018-08-14T04:35:13.555Z,100302.98
2018-08-14T04:37:42.204Z,100305.95
2018-08-14T04:40:12.526Z,100306.09
2018-08-14T04:42:42.970Z,100311.42
2018-08-14T04:45:11.643Z,100314.67
2018-08-14T04:47:41.455Z,100310.57
2018-08-14T04:50:12.072Z,100315.64
2018-08-14T04:52:41.188Z,100312.28
2018-08-14T04:55:10.673Z,100320.52
2018-08-14T04:57:41.326Z,100318.80
2018-08-14T05:00:12.881Z,100329.84
2018-08-14T05:02:42.516Z,100326.88
2018-08-14T05:05:12.929Z,100329.88
2018-08-14T05:07:42.086Z,100331.79
2018-08-14T05:10:13.694Z,100341.03
2018-08-14T05:12:43.348Z,100339.11
2018-08-14T05:15:11.891Z,100344.38
2018-08-14T05:17:40.854Z,100345.54
2018-08-14T05:20:11.325Z,100340.08
2018-08-14T05:22:40.120Z,100343.78
2018-08-14T05:25:09.013Z,100343.93
2018-08-14T05:27:37.979Z,100344.78
2018-08-14T05:30:16.237Z,100352.30
2018-08-14T05:32:46.638Z,100351.90
2018-08-14T05:35:15.127Z,100350.98
2018-08-14T05:37:43.837Z,100357.16
2018-08-14T05:40:13.945Z,100355.46
2018-08-14T05:42:42.486Z,100355.97
2018-08-14T05:45:14.460Z,100359.42
2018-08-14T05:47:43.012Z,100359.06
2018-08-14T05:50:16.113Z,100357.47
2018-08-14T05:52:44.693Z,100360.33
2018-08-14T05:55:14.731Z,100362.94
2018-08-14T05:57:43.666Z,100369.06
2018-08-14T06:00:17.046Z,100366.95
2018-08-14T06:02:45.723Z,100370.52
2018-08-14T06:05:14.300Z,100374.89
2018-08-14T06:07:42.713Z,100376.48
2018-08-14T06:10:11.460Z,100376.84
2018-08-14T06:12:40.038Z,100382.30
2018-08-14T06:15:10.574Z,100377.67
2018-08-14T06:17:39.606Z,100377.70
2018-08-14T06:20:10.640Z,100376.55
2018-08-14T06:22:39.724Z,100377.19
2018-08-14T06:25:08.960Z,100382.40
2018-08-14T06:27:37.552Z,100385.86
2018-08-14T06:30:11.112Z,100382.73
2018-08-14T06:32:41.189Z,100382.97
2018-08-14T06:35:10.611Z,100386.58
2018-08-14T06:37:40.176Z,100380.83
2018-08-14T06:40:13.914Z,100383.06
2018-08-14T06:42:43.043Z,100381.68
2018-08-14T06:45:15.054Z,100384.73
2018-08-14T06:47:43.612Z,100387.43
2018-08-14T06:50:16.381Z,100392.72
2018-08-14T06:52:45.273Z,100398.30
2018-08-14T06:55:14.309Z,100400.31
2018-08-14T06:57:44.048Z,100393.54
2018-08-14T07:00:21.106Z,100398.45
2018-08-14T07:02:50.288Z,100399.52
2018-08-14T07:05:20.368Z,100399.06
2018-08-14T07:07:49.133Z,100397.25
2018-08-14T07:10:18.116Z,100401.12
2018-08-14T07:12:46.862Z,100403.98
2018-08-14T07:15:19.388Z,100399.98
2018-08-14T07:17:48.090Z,100404.20
2018-08-14T07:20:17.016Z,100415.52
2018-08-14T07:22:46.445Z,100411.36
2018-08-14T07:25:16.686Z,100417.06
2018-08-14T07:27:45.256Z,100416.39
2018-08-14T07:30:20.737Z,100410.32
2018-08-14T07:32:50.335Z,100413.26
2018-08-14T07:35:18.948Z,100417.56
2018-08-14T07:37:47.917Z,100407.95
2018-08-14T07:40:17.368Z,100413.56
2018-08-14T07:42:46.047Z,100406.69
2018-08-14T07:45:17.010Z,100413.06
2018-08-14T07:47:46.531Z,100414.67
2018-08-14T07:50:15.718Z,100407.59
2018-08-14T07:52:45.388Z,100418.83
2018-08-14T07:55:14.810Z,100417.59
2018-08-14T07:57:43.569Z,100415.90
2018-08-14T08:00:17.549Z,100417.59
2018-08-14T08:02:46.752Z,100414.30
2018-08-14T08:05:15.396Z,100420.77
2018-08-14T08:07:43.932Z,100423.84
2018-08-14T08:10:14.927Z,100429.52
2018-08-14T08:12:43.702Z,100427.02
2018-08-14T08:15:16.659Z,100421.15
2018-08-14T08:17:45.637Z,100437.02
2018-08-14T08:20:34.653Z,100431.61
2018-08-14T08:23:04.955Z,100432.55
2018-08-14T08:25:33.860Z,100448.83
2018-08-14T08:28:02.786Z,100433.48
2018-08-14T08:30:31.404Z,100446.79
2018-08-14T08:33:00.119Z,100431.50
2018-08-14T08:35:29.290Z,100443.55
2018-08-14T08:37:58.382Z,100441.61
2018-08-14T08:40:26.959Z,100443.45
2018-08-14T08:42:55.430Z,100448.58
2018-08-14T08:45:24.274Z,100453.26
2018-08-14T08:48:04.068Z,100451.10
2018-08-14T08:50:33.358Z,100452.11
2018-08-14T08:53:01.888Z,100456.48
2018-08-14T08:55:30.511Z,100455.95
2018-08-14T08:57:59.472Z,100450.80
2018-08-14T09:00:28.111Z,100452.56
2018-08-14T09:02:57.662Z,100455.89
2018-08-14T09:05:26.153Z,100448.64
2018-08-14T09:07:54.632Z,100446.04
2018-08-14T09:10:23.719Z,100451.93
2018-08-14T09:12:52.354Z,100454.88
2018-08-14T09:15:20.892Z,100459.91
2018-08-14T09:17:49.466Z,100449.89
2018-08-14T09:20:17.996Z,100447.44
2018-08-14T09:22:46.599Z,100445.64
2018-08-14T09:25:16.202Z,100440.58
2018-08-14T09:27:45.953Z,100437.95
2018-08-14T09:30:15.659Z,100441.88
2018-08-14T09:32:46.033Z,100445.27
2018-08-14T09:35:16.487Z,100441.48
2018-08-14T09:37:45.095Z,100448.25
2018-08-14T09:40:16.786Z,100450.23
2018-08-14T09:42:45.479Z,100465.69
2018-08-14T09:45:15.390Z,100475.80
2018-08-14T09:47:44.476Z,100473.02
2018-08-14T09:50:17.158Z,100467.64
2018-08-14T09:52:47.447Z,100469.31
2018-08-14T09:55:17.162Z,100468.67
2018-08-14T09:57:47.117Z,100470.03
2018-08-14T10:00:26.254Z,100472.81
2018-08-14T10:03:00.082Z,100484.52
2018-08-14T10:05:33.913Z,100470.52
2018-08-14T10:08:07.971Z,100463.23
2018-08-14T10:10:37.556Z,100467.40
2018-08-14T10:13:08.473Z,100477.05
2018-08-14T10:15:37.538Z,100489.13
2018-08-14T10:18:06.533Z,100483.84
2018-08-14T10:20:35.043Z,100483.92
2018-08-14T10:23:03.918Z,100485.16
2018-08-14T10:25:33.542Z,100491.47
2018-08-14T10:28:02.125Z,100497.48
2018-08-14T10:30:30.862Z,100500.38
2018-08-14T10:32:59.368Z,100495.83
2018-08-14T10:35:27.936Z,100488.65
2018-08-14T10:37:56.558Z,100493.38
2018-08-14T10:40:25.475Z,100511.46
2018-08-14T10:42:55.185Z,100517.14
2018-08-14T10:45:23.677Z,100517.95
2018-08-14T10:47:52.221Z,100507.61
2018-08-14T10:50:22.935Z,100520.42
2018-08-14T10:52:52.436Z,100514.47
2018-08-14T10:55:21.432Z,100515.55
2018-08-14T10:57:51.426Z,100512.16
2018-08-14T11:00:25.920Z,100516.47
2018-08-14T11:02:54.615Z,100520.64
2018-08-14T11:05:23.526Z,100517.47
2018-08-14T11:07:52.657Z,100520.88
2018-08-14T11:10:25.755Z,100527.38
2018-08-14T11:12:54.919Z,100522.82
2018-08-14T11:15:23.527Z,100526.64
2018-08-14T11:17:53.056Z,100526.23
2018-08-14T11:20:24.096Z,100531.38
2018-08-14T11:22:52.733Z,100527.39
2018-08-14T11:25:21.217Z,100523.84
2018-08-14T11:27:49.871Z,100526.38
2018-08-14T11:30:22.074Z,100524.22
2018-08-14T11:32:51.417Z,100528.14
2018-08-14T11:35:20.728Z,100528.37
2018-08-14T11:37:49.231Z,100531.67
2018-08-14T11:40:18.720Z,100542.37
2018-08-14T11:42:47.626Z,100526.71
2018-08-14T11:45:20.635Z,100532.63
2018-08-14T11:47:49.464Z,100534.86
2018-08-14T11:50:18.764Z,100533.55
2018-08-14T11:52:48.736Z,100534.97
2018-08-14T11:55:18.424Z,100537.58
2018-08-14T11:57:47.875Z,100542.81
2018-08-14T12:00:19.124Z,100551.69
2018-08-14T12:02:48.064Z,100551.31
2018-08-14T12:05:17.732Z,100559.67
2018-08-14T12:07:47.206Z,100563.59
2018-08-14T12:10:17.175Z,100567.52
2018-08-14T12:12:46.008Z,100562.58
2018-08-14T12:15:15.737Z,100565.13
2018-08-14T12:18:14.827Z,100566.73
2018-08-14T12:20:43.406Z,100585.26
2018-08-14T12:23:11.917Z,100594.05
2018-08-14T12:25:41.089Z,100591.91
2018-08-14T12:28:09.569Z,100597.16
2018-08-14T12:30:38.160Z,100599.20
2018-08-14T12:33:07.865Z,100601.59
2018-08-14T12:35:37.163Z,100598.24
2018-08-14T12:38:05.897Z,100586.01
2018-08-14T12:40:34.400Z,100586.92
2018-08-14T12:43:03.166Z,100597.29
2018-08-14T12:45:35.064Z,100597.97
2018-08-14T12:48:04.266Z,100604.00
2018-08-14T12:50:33.567Z,100623.65
2018-08-14T12:53:02.125Z,100584.31
2018-08-14T12:55:31.627Z,100596.42
2018-08-14T12:58:00.384Z,100609.53
2018-08-14T13:00:30.789Z,100626.78
2018-08-14T13:02:59.857Z,100644.10
2018-08-14T13:05:28.799Z,100638.56
2018-08-14T13:07:58.333Z,100630.80
2018-08-14T13:10:26.836Z,100646.99
2018-08-14T13:12:56.013Z,100646.45
2018-08-14T13:15:24.848Z,100660.59
2018-08-14T13:18:02.415Z,100658.13
2018-08-14T13:20:32.091Z,100677.23
2018-08-14T13:23:01.000Z,100662.89
2018-08-14T13:25:29.604Z,100658.97
2018-08-14T13:27:58.508Z,100671.48
2018-08-14T13:30:27.206Z,100669.39
2018-08-14T13:32:55.812Z,100680.88
2018-08-14T13:35:24.429Z,100687.61
2018-08-14T13:37:54.520Z,100688.55
2018-08-14T13:40:23.649Z,100688.42
2018-08-14T13:42:52.205Z,100698.67
2018-08-14T13:45:20.843Z,100704.06
2018-08-14T13:47:49.870Z,100693.45
2018-08-14T13:50:18.509Z,100696.03
2018-08-14T13:52:47.018Z,100693.29
2018-08-14T13:55:17.769Z,100693.36
2018-08-14T13:57:46.819Z,100691.86
2018-08-14T14:00:17.459Z,100697.28
2018-08-14T14:02:46.045Z,100700.48
2018-08-14T14:05:15.194Z,100708.10
2018-08-14T14:07:44.037Z,100706.70
2018-08-14T14:10:15.045Z,100706.11
2018-08-14T14:12:44.398Z,100706.50
2018-08-14T14:15:18.944Z,100706.99
2018-08-14T14:17:48.593Z,100711.16
2018-08-14T14:20:20.176Z,100717.95
2018-08-14T14:22:48.651Z,100711.17
2018-08-14T14:25:17.170Z,100722.34
2018-08-14T14:27:45.984Z,100723.70
2018-08-14T14:30:15.910Z,100731.94
2018-08-14T14:32:45.115Z,100741.66
2018-08-14T14:35:14.761Z,100739.05
2018-08-14T14:37:43.590Z,100734.78
2018-08-14T14:40:18.523Z,100735.27
2018-08-14T14:42:47.574Z,100737.69
2018-08-14T14:45:16.792Z,100738.00
2018-08-14T14:47:47.498Z,100735.45
2018-08-14T14:50:16.474Z,100737.53
2018-08-14T14:52:46.164Z,100741.08
2018-08-14T14:55:17.724Z,100741.84
2018-08-14T14:57:46.798Z,100737.58
2018-08-14T15:00:18.474Z,100742.47
2018-08-14T15:02:47.955Z,100743.32
2018-08-14T15:05:17.252Z,100749.11
2018-08-14T15:07:46.863Z,100744.39
2018-08-14T15:10:15.555Z,100744.94
2018-08-14T15:12:44.138Z,100745.50
2018-08-14T15:15:12.751Z,100752.20
2018-08-14T15:17:42.432Z,100759.78
2018-08-14T15:20:14.177Z,100762.76
2018-08-14T15:22:43.709Z,100767.84
2018-08-14T15:25:14.478Z,100765.32
2018-08-14T15:28:59.355Z,100764.52
2018-08-14T15:31:28.204Z,100766.17
2018-08-14T15:33:57.637Z,100770.15
2018-08-14T15:36:27.623Z,100767.23
2018-08-14T15:38:57.656Z,100769.13
2018-08-14T15:41:27.771Z,100775.67
2018-08-14T15:43:56.318Z,100764.22
2018-08-14T15:46:24.856Z,100767.08
2018-08-14T15:48:54.510Z,100769.09
2018-08-14T15:51:23.036Z,100762.81
2018-08-14T15:53:52.053Z,100767.69
2018-08-14T15:56:21.670Z,100764.26
2018-08-14T15:58:50.398Z,100765.61
2018-08-14T16:01:19.367Z,100768.80
2018-08-14T16:03:47.974Z,100767.28
2018-08-14T16:06:16.654Z,100763.17
2018-08-14T16:08:45.204Z,100764.05
2018-08-14T16:11:13.778Z,100764.48
2018-08-14T16:13:43.752Z,100766.10
2018-08-14T16:16:12.943Z,100766.92
2018-08-14T16:18:41.789Z,100769.66
2018-08-14T16:21:10.361Z,100766.41
2018-08-14T16:23:38.970Z,100763.56
2018-08-14T16:26:10.855Z,100763.73
2018-08-14T16:28:44.740Z,100774.57
2018-08-14T16:31:24.370Z,100767.75
2018-08-14T16:33:55.963Z,100771.56
2018-08-14T16:36:26.277Z,100768.01
2018-08-14T16:38:55.401Z,100763.91
2018-08-14T16:41:26.444Z,100772.47
2018-08-14T16:43:55.715Z,100770.99
2018-08-14T16:46:24.869Z,100775.25
2018-08-14T16:48:54.801Z,100779.87
2018-08-14T16:51:23.999Z,100774.52
2018-08-14T16:53:54.288Z,100771.04
2018-08-14T16:56:24.289Z,100782.11
2018-08-14T16:58:55.016Z,100788.20
2018-08-14T17:01:25.459Z,100782.91
2018-08-14T17:03:54.201Z,100792.18
2018-08-14T17:06:24.201Z,100789.11
2018-08-14T17:08:54.920Z,100781.55
2018-08-14T17:11:24.107Z,100787.45
2018-08-14T17:13:54.322Z,100781.91
2018-08-14T17:16:23.588Z,100783.44
2018-08-14T17:18:58.532Z,100785.20
2018-08-14T17:21:25.987Z,100792.23
2018-08-14T17:23:56.439Z,100799.91
2018-08-14T17:26:25.912Z,100794.89
2018-08-14T17:28:56.294Z,100798.37
2018-08-14T17:31:27.643Z,100797.73
2018-08-14T17:33:58.962Z,100808.36
2018-08-14T17:36:28.736Z,100803.34
2018-08-14T17:38:57.803Z,100804.80
2018-08-14T17:41:30.528Z,100801.18
2018-08-14T17:43:59.820Z,100809.03
2018-08-14T17:46:29.895Z,100816.13
2018-08-14T17:51:46.440Z,100819.11
2018-08-14T17:54:15.737Z,100824.73
2018-08-14T17:56:44.912Z,100827.91
2018-08-14T17:59:14.655Z,100836.61
2018-08-14T18:01:45.481Z,100835.91
2018-08-14T18:04:33.042Z,100846.98
2018-08-14T18:07:03.576Z,100845.80
2018-08-14T18:09:35.406Z,100851.52
2018-08-14T18:12:04.416Z,100857.27
2018-08-14T18:14:33.992Z,100853.49
2018-08-14T18:17:04.252Z,100868.95
2018-08-14T18:19:34.708Z,100867.53
2018-08-14T18:22:06.109Z,100866.25
2018-08-14T18:24:36.454Z,100870.32
2018-08-14T18:27:06.977Z,100886.56
2018-08-14T18:29:36.975Z,100877.01
2018-08-14T18:32:08.622Z,100881.39
2018-08-14T18:34:37.637Z,100880.16
2018-08-14T18:37:08.283Z,100887.42
2018-08-14T18:39:37.636Z,100891.94
2018-08-14T18:42:06.268Z,100894.24
2018-08-14T18:44:35.011Z,100902.28
2018-08-14T18:47:04.007Z,100905.59
2018-08-14T18:49:32.627Z,100919.71
2018-08-14T18:52:01.514Z,100923.69
2018-08-14T18:54:30.855Z,100924.36
2018-08-14T18:56:59.729Z,100929.25
2018-08-14T18:59:28.368Z,100931.73
2018-08-14T19:01:57.161Z,100931.95
2018-08-14T19:04:25.896Z,100932.86
2018-08-14T19:06:54.672Z,100943.11
2018-08-14T19:09:23.395Z,100945.09
2018-08-14T19:11:52.101Z,100950.58
2018-08-14T19:14:21.462Z,100950.09
2018-08-14T19:16:53.351Z,100957.16
2018-08-14T19:19:22.152Z,100953.58
2018-08-14T19:21:51.015Z,100959.14
2018-08-14T19:24:20.396Z,100961.48
2018-08-14T19:26:49.592Z,100967.16
2018-08-14T19:29:18.538Z,100968.92
2018-08-14T19:31:49.136Z,100978.56
2018-08-14T19:34:17.896Z,100982.03
2018-08-14T19:36:50.519Z,100984.72
2018-08-14T19:39:20.720Z,100984.27
2018-08-14T19:41:51.255Z,100983.55
2018-08-14T19:44:20.130Z,100984.00
2018-08-14T19:46:48.892Z,100986.66
2018-08-14T19:49:17.579Z,100988.34
2018-08-14T19:51:47.730Z,100994.19
2018-08-14T19:54:16.280Z,100992.16
2018-08-14T19:56:45.052Z,100987.84
2018-08-14T19:59:13.625Z,100990.56
2018-08-14T20:01:42.781Z,100995.64
2018-08-14T20:04:11.304Z,100994.28
2018-08-14T20:06:40.283Z,100998.33
2018-08-14T20:09:10.999Z,100996.73
2018-08-14T20:11:40.259Z,101002.45
2018-08-14T20:14:09.618Z,101006.04
2018-08-14T20:16:43.798Z,101007.19
2018-08-14T20:19:13.369Z,101008.98
2018-08-14T20:21:42.356Z,101011.09
2018-08-14T20:24:10.995Z,101016.03
2018-08-14T20:26:39.569Z,101022.11
2018-08-14T20:29:08.940Z,101023.53
2018-08-14T20:31:41.093Z,101028.75
2018-08-14T20:34:12.951Z,101028.63
2018-08-14T20:36:42.142Z,101035.56
2018-08-14T20:39:11.514Z,101034.19
2018-08-14T20:44:24.194Z,101029.30
2018-08-14T20:46:54.068Z,101034.09
2018-08-14T20:49:22.655Z,101042.38
2018-08-14T20:51:51.357Z,101034.54
2018-08-14T20:54:21.041Z,101035.84
2018-08-14T20:56:50.349Z,101043.35
2018-08-14T20:59:20.785Z,101043.55
2018-08-14T21:01:50.058Z,101047.81
2018-08-14T21:04:18.740Z,101047.64
2018-08-14T21:06:47.416Z,101057.22
2018-08-14T21:09:15.940Z,101053.83
2018-08-14T21:11:45.164Z,101054.65
2018-08-14T21:14:13.861Z,101062.25
2018-08-14T21:16:43.188Z,101071.42
2018-08-14T21:19:13.033Z,101073.70
2018-08-14T21:21:42.582Z,101080.73
2018-08-14T21:24:12.796Z,101077.72
2018-08-14T21:26:41.377Z,101077.72
2018-08-14T21:29:11.297Z,101080.14
2018-08-14T21:35:59.642Z,101076.89
2018-08-14T21:38:28.122Z,101082.14
2018-08-14T21:40:59.697Z,101089.97
2018-08-14T21:43:28.421Z,101093.09
2018-08-14T21:45:59.324Z,101098.04
2018-08-14T21:48:30.323Z,101101.95
2018-08-14T21:50:59.477Z,101095.50
2018-08-14T21:53:28.195Z,101096.06
2018-08-14T21:55:56.859Z,101107.41
2018-08-14T21:58:26.220Z,101104.02
2018-08-14T22:01:06.635Z,101102.68
2018-08-14T22:03:39.598Z,101097.98
2018-08-14T22:06:08.782Z,101102.41
2018-08-14T22:08:37.770Z,101103.30
2018-08-14T22:11:06.678Z,101107.39
2018-08-14T22:13:35.204Z,101113.42
2018-08-14T22:16:04.047Z,101114.83
2018-08-14T22:18:32.904Z,101117.84
2018-08-14T22:21:02.042Z,101121.42
2018-08-14T22:23:30.976Z,101120.97
2018-08-14T22:26:00.136Z,101123.34
2018-08-14T22:28:28.842Z,101125.13
2018-08-14T22:30:57.401Z,101126.42
2018-08-14T22:33:25.970Z,101125.25
2018-08-14T22:35:54.476Z,101129.33
2018-08-14T22:38:23.207Z,101134.06
2018-08-14T22:40:51.857Z,101131.94
2018-08-14T22:43:20.925Z,101134.23
2018-08-14T22:45:50.226Z,101133.30
2018-08-14T22:48:19.834Z,101136.39
2018-08-14T22:50:48.839Z,101142.39
2018-08-14T22:53:17.375Z,101141.98
2018-08-14T22:55:45.976Z,101141.28
2018-08-14T22:58:15.656Z,101134.27
2018-08-14T23:00:44.292Z,101131.24
2018-08-14T23:03:13.034Z,101137.95
2018-08-14T23:05:41.584Z,101142.98
2018-08-14T23:08:10.176Z,101148.67
2018-08-14T23:10:39.883Z,101145.65
2018-08-14T23:13:09.318Z,101147.49
2018-08-14T23:15:41.541Z,101150.09
2018-08-14T23:18:10.679Z,101151.94
2018-08-14T23:20:40.081Z,101154.42
2018-08-14T23:23:09.058Z,101156.00
2018-08-14T23:25:38.378Z,101156.38
2018-08-14T23:28:07.156Z,101160.23
2018-08-14T23:30:35.843Z,101165.95
2018-08-14T23:33:04.928Z,101166.07
2018-08-14T23:35:33.409Z,101172.11
2018-08-14T23:38:02.995Z,101165.31
2018-08-14T23:40:31.549Z,101170.94
2018-08-14T23:43:00.491Z,101171.79
2018-08-14T23:45:30.116Z,101176.46
2018-08-14T23:47:58.839Z,101176.40
2018-08-14T23:50:27.522Z,101175.92
2018-08-14T23:52:56.132Z,101173.03
2018-08-14T23:55:24.752Z,101174.39
2018-08-14T23:57:53.352Z,101170.71
